Time;durP1;ratioP1;P1;durP2;ratioP2;P2;SDS_P1;SDS_P2;PMS_P1;PMS_P2;Temp;Humidity;BMP_temperature;BMP_pressure;BME280_temperature;BME280_humidity;BME280_pressure;Samples;Min_cycle;Max_cycle;Signal;HPM_P1;HPM_P2
2022/11/21 00:01:16;;;;;;;2.43;1.73;;;;;;;7.43;67.29;96853.94;8316671;28;20234;-73
2022/11/21 00:05:19;;;;;;;1.87;1.60;;;;;;;7.54;67.56;96863.72;8316280;28;20276;-73
2022/11/21 00:09:22;;;;;;;1.73;1.30;;;;;;;7.42;68.07;96862.59;8316078;28;20549;-75
2022/11/21 00:13:26;;;;;;;2.43;1.17;;;;;;;7.41;67.69;96839.47;8315874;28;20233;-74
2022/11/21 00:17:29;;;;;;;2.50;1.30;;;;;;;7.35;68.59;96840.59;8315938;28;20399;-74
2022/11/21 00:21:32;;;;;;;2.43;1.33;;;;;;;7.32;69.01;96845.91;8315833;28;20226;-74
2022/11/21 00:25:35;;;;;;;2.90;1.27;;;;;;;7.47;68.61;96828.03;8315572;28;20230;-74
2022/11/21 00:29:39;;;;;;;2.30;1.13;;;;;;;7.49;68.48;96831.34;8315524;28;20230;-73
2022/11/21 00:33:41;;;;;;;2.87;1.20;;;;;;;7.49;68.60;96829.59;8315495;28;20237;-73
2022/11/21 00:37:47;;;;;;;3.00;1.40;;;;;;;7.47;68.42;96838.34;8315246;28;20250;-74
2022/11/21 00:41:50;;;;;;;2.27;1.30;;;;;;;7.64;68.69;96833.16;8315267;28;20234;-74
2022/11/21 00:45:54;;;;;;;3.37;1.30;;;;;;;7.54;68.70;96830.22;8314505;28;20231;-74
2022/11/21 00:49:57;;;;;;;2.43;1.40;;;;;;;7.55;68.17;96826.72;8315105;28;20248;-73
2022/11/21 00:54:00;;;;;;;2.60;1.37;;;;;;;7.64;68.27;96830.59;8314212;28;20230;-74
2022/11/21 00:58:03;;;;;;;4.80;1.50;;;;;;;7.76;68.67;96827.38;8314689;28;20230;-74
2022/11/21 01:02:07;;;;;;;4.30;1.60;;;;;;;8.05;66.96;96824.19;8313974;28;20742;-73
2022/11/21 01:06:11;;;;;;;5.47;1.57;;;;;;;7.82;67.53;96821.06;8314516;28;20506;-75
2022/11/21 01:10:14;;;;;;;4.33;1.50;;;;;;;7.80;67.27;96810.84;8314607;28;20230;-73
2022/11/21 01:14:17;;;;;;;6.63;1.70;;;;;;;7.81;67.35;96811.69;8314527;28;20230;-74
2022/11/21 01:18:21;;;;;;;3.50;1.30;;;;;;;7.77;67.85;96810.19;8314288;28;20241;-74
2022/11/21 01:22:24;;;;;;;5.47;1.57;;;;;;;7.71;68.38;96815.63;8314126;28;20299;-74
2022/11/21 01:26:29;;;;;;;6.90;1.60;;;;;;;7.72;68.58;96819.88;8314283;28;20230;-74
2022/11/21 01:30:31;;;;;;;4.00;1.53;;;;;;;7.70;69.22;96821.72;8314174;28;20237;-74
2022/11/21 01:34:35;;;;;;;3.93;1.37;;;;;;;7.74;69.23;96812.91;8314117;28;20236;-74
2022/11/21 01:38:39;;;;;;;4.23;1.40;;;;;;;7.69;68.75;96799.41;8313934;28;20422;-74
2022/11/21 01:42:55;;;;;;;5.87;1.40;;;;;;;7.78;68.57;96804.94;8313913;28;20237;-74
2022/11/21 01:46:58;;;;;;;3.07;1.23;;;;;;;7.77;68.58;96808.44;8313503;28;20236;-73
2022/11/21 01:51:06;;;;;;;2.97;1.20;;;;;;;7.61;68.80;96810.13;8313889;28;20595;-74
2022/11/21 01:55:10;;;;;;;3.30;1.03;;;;;;;7.66;69.08;96794.44;8314128;28;20288;-74
2022/11/21 01:59:16;;;;;;;5.97;1.60;;;;;;;7.53;69.85;96795.03;8313864;28;20246;-74
2022/11/21 02:03:21;;;;;;;5.80;1.20;;;;;;;7.72;68.50;96784.63;8313753;28;20218;-74
2022/11/21 02:07:26;;;;;;;3.77;1.33;;;;;;;7.70;68.50;96789.03;8318154;28;20443;-74
2022/11/21 02:11:32;;;;;;;3.27;1.30;;;;;;;7.71;68.76;96823.34;8319789;28;20230;-74
2022/11/21 02:15:35;;;;;;;3.47;1.47;;;;;;;7.68;68.52;96820.97;8319663;28;20285;-74
2022/11/21 02:19:43;;;;;;;5.73;1.60;;;;;;;7.66;68.50;96803.00;8319390;28;20265;-74
2022/11/21 02:23:52;;;;;;;4.33;1.30;;;;;;;7.73;68.02;96783.72;8319493;28;20237;-74
2022/11/21 02:28:05;;;;;;;3.57;1.37;;;;;;;7.86;67.77;96812.25;8318933;28;20234;-75
2022/11/21 02:32:08;;;;;;;3.67;1.40;;;;;;;7.94;67.89;96807.56;8319299;28;20230;-74
2022/11/21 02:36:35;;;;;;;4.50;1.47;;;;;;;7.92;67.22;96805.94;8319155;28;20526;-74
2022/11/21 02:40:42;;;;;;;5.97;1.50;;;;;;;7.89;67.65;96798.41;8319014;28;20412;-75
2022/11/21 02:44:51;;;;;;;6.20;1.33;;;;;;;7.81;68.01;96802.19;8318781;28;20226;-74
2022/11/21 02:48:53;;;;;;;6.40;1.27;;;;;;;7.80;67.53;96787.63;8318105;28;20404;-72
2022/11/21 02:52:56;;;;;;;2.87;0.90;;;;;;;7.71;67.74;96797.59;8318703;28;20250;-73
2022/11/21 02:56:59;;;;;;;2.10;0.80;;;;;;;7.64;67.83;96789.34;8318578;28;20265;-73
2022/11/21 03:01:03;;;;;;;3.27;0.93;;;;;;;7.90;66.97;96793.16;8318306;28;20238;-73
2022/11/21 03:05:08;;;;;;;2.10;0.80;;;;;;;7.82;67.44;96793.56;8318051;28;20226;-73
2022/11/21 03:09:11;;;;;;;2.70;0.80;;;;;;;7.73;67.59;96790.59;8317748;28;20241;-74
2022/11/21 03:13:14;;;;;;;1.90;0.70;;;;;;;7.63;68.38;96790.25;8317419;28;20226;-72
2022/11/21 03:17:19;;;;;;;1.40;0.83;;;;;;;7.64;67.98;96782.44;8317502;28;20258;-73
2022/11/21 03:21:21;;;;;;;1.97;0.80;;;;;;;7.76;68.21;96783.56;8317502;28;20226;-73
2022/11/21 03:25:24;;;;;;;2.20;0.90;;;;;;;7.60;67.87;96782.69;8317360;28;20234;-73
2022/11/21 03:29:27;;;;;;;2.20;1.07;;;;;;;7.94;67.54;96774.03;8317330;28;20446;-73
2022/11/21 03:33:31;;;;;;;2.80;1.03;;;;;;;7.90;67.48;96780.28;8316901;28;20228;-73
2022/11/21 03:37:34;;;;;;;7.07;1.57;;;;;;;7.63;67.80;96760.19;8316952;28;20234;-74
2022/11/21 03:41:37;;;;;;;4.37;1.53;;;;;;;7.82;67.84;96765.22;8316454;28;20227;-73
2022/11/21 03:45:39;;;;;;;3.13;1.33;;;;;;;7.93;67.94;96774.13;8316577;28;20300;-73
2022/11/21 03:49:43;;;;;;;6.50;1.40;;;;;;;7.86;67.96;96765.03;8316370;28;20422;-74
2022/11/21 03:53:46;;;;;;;6.90;1.23;;;;;;;8.01;67.26;96771.97;8316125;28;20292;-74
2022/11/21 03:57:49;;;;;;;4.17;1.30;;;;;;;7.95;66.96;96767.97;8316280;28;20242;-73
2022/11/21 04:01:52;;;;;;;6.83;1.60;;;;;;;7.78;67.21;96765.44;8316118;28;20534;-73
2022/11/21 04:05:56;;;;;;;5.50;1.80;;;;;;;7.63;66.93;96762.75;8315629;28;20252;-73
2022/11/21 04:09:59;;;;;;;5.27;1.33;;;;;;;7.91;67.30;96765.63;8315915;28;20245;-73
2022/11/21 04:14:02;;;;;;;3.87;1.33;;;;;;;7.79;67.41;96759.38;8315512;28;20238;-74
2022/11/21 04:18:04;;;;;;;4.37;1.33;;;;;;;7.98;67.33;96756.69;8315567;28;20226;-74
2022/11/21 04:22:09;;;;;;;4.57;1.33;;;;;;;8.08;66.43;96751.84;8315514;28;20271;-74
2022/11/21 04:26:11;;;;;;;4.80;1.40;;;;;;;7.86;67.43;96759.88;8315287;28;20230;-73
2022/11/21 04:30:14;;;;;;;3.73;1.30;;;;;;;8.09;66.60;96756.94;8314453;28;20226;-73
2022/11/21 04:34:17;;;;;;;3.97;1.30;;;;;;;7.97;65.97;96742.94;8315035;28;20234;-73
2022/11/21 04:38:21;;;;;;;4.90;1.40;;;;;;;7.77;66.41;96750.91;8315048;28;20249;-74
2022/11/21 04:42:24;;;;;;;7.70;5.53;;;;;;;7.93;65.54;96766.38;8315178;28;20248;-74
2022/11/21 04:46:27;;;;;;;4.13;1.47;;;;;;;8.02;66.02;96769.31;8314988;28;20226;-73
2022/11/21 04:50:30;;;;;;;4.60;1.40;;;;;;;7.89;65.84;96757.16;8314959;28;20541;-74
2022/11/21 04:54:34;;;;;;;6.53;1.30;;;;;;;7.91;65.88;96755.31;8314680;28;20230;-74
2022/11/21 04:58:37;;;;;;;1.97;1.07;;;;;;;7.67;66.46;96766.00;8314427;28;20280;-74
2022/11/21 05:02:40;;;;;;;2.97;1.20;;;;;;;7.66;65.98;96760.94;8314565;28;20233;-74
2022/11/21 05:06:42;;;;;;;4.03;1.10;;;;;;;8.04;65.41;96764.06;8314270;28;20222;-74
2022/11/21 05:15:07;;;;;;;3.60;1.30;;;;;;;7.81;66.28;96760.97;8314143;28;20229;-73
2022/11/21 05:19:10;;;;;;;1.63;0.97;;;;;;;7.85;65.83;96753.91;8314076;28;20530;-74
2022/11/21 05:23:12;;;;;;;3.17;1.20;;;;;;;7.99;65.43;96773.78;8314101;28;20242;-74
2022/11/21 05:27:17;;;;;;;4.13;1.23;;;;;;;7.97;66.26;96763.56;8314100;28;20230;-74
2022/11/21 05:31:19;;;;;;;3.33;1.30;;;;;;;7.91;65.80;96763.88;8314065;28;20233;-74
2022/11/21 05:35:22;;;;;;;2.87;1.30;;;;;;;7.87;66.23;96752.06;8314164;28;20226;-73
2022/11/21 05:39:25;;;;;;;4.60;1.30;;;;;;;7.81;66.38;96760.97;8315443;28;20288;-74
2022/11/21 05:43:48;;;;;;;3.60;1.30;;;;;;;7.78;66.94;96770.59;8320368;28;20229;-74
2022/11/21 05:47:51;;;;;;;2.50;1.00;;;;;;;7.75;66.28;96773.31;8320362;28;20241;-71
2022/11/21 05:51:54;;;;;;;2.60;1.30;;;;;;;7.83;66.34;96758.31;8319553;28;20227;-74
2022/11/21 05:55:56;;;;;;;1.93;1.10;;;;;;;7.97;65.53;96771.28;8319834;28;20230;-73
2022/11/21 06:00:00;;;;;;;3.10;1.20;;;;;;;8.04;65.19;96779.53;8320002;28;20451;-74
2022/11/21 06:04:03;;;;;;;2.83;1.10;;;;;;;7.86;66.05;96778.75;8319991;28;20230;-74
2022/11/21 06:08:06;;;;;;;2.30;0.93;;;;;;;8.02;65.00;96771.88;8319480;28;20257;-74
2022/11/21 06:12:09;;;;;;;1.93;1.00;;;;;;;8.06;65.43;96767.41;8319497;28;20237;-74
2022/11/21 06:16:17;;;;;;;1.80;1.00;;;;;;;7.93;65.71;96766.38;8319139;28;20238;-75
2022/11/21 06:20:20;;;;;;;2.40;1.33;;;;;;;8.06;65.20;96780.28;8319428;28;20222;-74
2022/11/21 06:24:22;;;;;;;2.60;1.10;;;;;;;8.12;65.35;96786.88;8319158;28;20226;-74
2022/11/21 06:28:25;;;;;;;3.83;0.97;;;;;;;8.21;65.00;96787.22;8318902;28;20222;-74
2022/11/21 06:32:29;;;;;;;2.07;0.90;;;;;;;7.95;65.61;96791.16;8319039;28;20241;-74
2022/11/21 06:36:32;;;;;;;1.47;0.90;;;;;;;8.00;65.61;96798.66;8318852;28;20366;-74
2022/11/21 06:40:35;;;;;;;1.53;0.90;;;;;;;8.11;65.28;96783.47;8318188;28;20238;-74
2022/11/21 06:44:38;;;;;;;1.00;0.70;;;;;;;8.16;64.86;96807.25;8318184;28;20237;-73
2022/11/21 06:48:43;;;;;;;2.63;1.00;;;;;;;8.26;65.11;96810.16;8318599;28;20231;-73
2022/11/21 06:52:46;;;;;;;3.33;0.80;;;;;;;8.14;64.85;96811.66;8317603;28;20229;-74
2022/11/21 06:56:52;;;;;;;3.83;1.10;;;;;;;8.24;64.88;96822.31;8318375;28;20238;-74
2022/11/21 07:00:55;;;;;;;1.80;0.87;;;;;;;8.13;65.57;96822.03;8317684;28;20249;-75
2022/11/21 07:04:59;;;;;;;3.27;0.97;;;;;;;8.10;65.36;96819.66;8318103;28;20233;-74
2022/11/21 07:09:02;;;;;;;1.33;0.87;;;;;;;8.26;65.55;96823.06;8317789;28;20234;-74
2022/11/21 07:13:27;;;;;;;11.80;1.70;;;;;;;8.39;64.75;96824.06;8317394;28;20232;-74
2022/11/21 07:17:29;;;;;;;2.23;0.93;;;;;;;8.33;64.50;96826.97;8317750;28;20425;-74
2022/11/21 07:21:34;;;;;;;1.90;0.93;;;;;;;8.27;64.79;96829.06;8317474;28;20616;-74
2022/11/21 07:25:38;;;;;;;1.37;0.70;;;;;;;8.37;64.20;96828.47;8317529;28;20226;-73
2022/11/21 07:29:41;;;;;;;1.30;0.73;;;;;;;8.34;64.56;96823.50;8317233;28;20231;-73
2022/11/21 07:33:45;;;;;;;2.37;1.27;;;;;;;8.59;63.94;96811.88;8317286;28;20226;-74
2022/11/21 07:37:49;;;;;;;2.97;1.00;;;;;;;8.49;64.39;96813.28;8316710;28;20337;-73
2022/11/21 07:41:52;;;;;;;1.03;0.80;;;;;;;8.93;62.97;96822.91;8316455;28;20234;-72
2022/11/21 07:45:56;;;;;;;2.60;1.27;;;;;;;8.77;63.20;96826.34;8316672;28;20526;-73
2022/11/21 07:49:59;;;;;;;2.97;1.10;;;;;;;8.69;63.04;96823.38;8316458;28;20230;-73
2022/11/21 07:54:03;;;;;;;2.77;1.10;;;;;;;8.88;62.61;96819.78;8316637;28;20230;-73
2022/11/21 07:58:07;;;;;;;2.27;1.07;;;;;;;8.60;63.67;96826.44;8316253;28;20565;-74
2022/11/21 08:02:18;;;;;;;2.73;1.10;;;;;;;8.63;63.57;96828.88;8315842;28;20268;-73
2022/11/21 08:06:21;;;;;;;1.80;0.77;;;;;;;10.26;59.35;96831.53;8316171;28;20261;-73
2022/11/21 08:10:25;;;;;;;1.97;0.90;;;;;;;11.69;54.39;96825.03;8316171;28;20243;-73
2022/11/21 08:14:27;;;;;;;2.17;0.90;;;;;;;12.48;52.99;96836.13;8315709;28;20234;-73
2022/11/21 08:18:30;;;;;;;1.67;0.73;;;;;;;12.76;52.39;96826.41;8315770;28;20256;-74
2022/11/21 08:22:38;;;;;;;1.83;0.90;;;;;;;13.17;50.99;96830.38;8315360;28;20236;-73
2022/11/21 08:26:42;;;;;;;1.97;0.90;;;;;;;12.64;52.31;96834.13;8315485;28;20238;-74
2022/11/21 08:30:45;;;;;;;2.30;1.10;;;;;;;11.23;55.35;96828.94;8315877;28;20227;-74
2022/11/21 08:34:47;;;;;;;2.80;0.83;;;;;;;10.97;56.15;96833.19;8315426;28;20230;-74
2022/11/21 08:38:50;;;;;;;2.93;1.10;;;;;;;10.77;57.17;96839.63;8314998;28;20245;-74
2022/11/21 08:42:57;;;;;;;2.63;1.03;;;;;;;11.49;54.99;96837.56;8314712;28;20414;-74
2022/11/21 08:47:01;;;;;;;1.77;0.70;;;;;;;10.70;57.10;96846.97;8314658;28;20231;-74
2022/11/21 08:51:03;;;;;;;2.57;0.90;;;;;;;10.67;57.12;96849.72;8314212;28;20237;-74
2022/11/21 08:55:08;;;;;;;3.40;1.10;;;;;;;11.04;56.72;96854.34;8314423;28;20234;-73
2022/11/21 08:59:12;;;;;;;2.77;1.10;;;;;;;10.30;57.82;96859.78;8314479;28;20234;-73
2022/11/21 09:03:15;;;;;;;1.30;0.80;;;;;;;10.35;58.71;96859.47;8314438;28;20292;-73
2022/11/21 09:07:25;;;;;;;2.17;0.97;;;;;;;10.53;57.43;96857.53;8314103;28;20237;-72
2022/11/21 09:11:28;;;;;;;2.30;0.80;;;;;;;10.10;58.96;96857.53;8314195;28;20530;-73
2022/11/21 09:19:52;;;;;;;3.73;0.80;;;;;;;9.73;59.49;96857.94;8313540;28;20274;-73
2022/11/21 09:23:55;;;;;;;2.67;1.10;;;;;;;9.92;59.47;96846.53;8313744;28;20419;-72
2022/11/21 09:27:59;;;;;;;1.93;1.10;;;;;;;9.84;59.77;96852.13;8313796;28;20243;-73
2022/11/21 09:32:03;;;;;;;2.67;1.20;;;;;;;10.08;59.31;96854.19;8313801;28;20239;-73
2022/11/21 09:36:06;;;;;;;2.10;0.90;;;;;;;9.76;60.22;96859.53;8313579;28;20253;-74
2022/11/21 09:40:16;;;;;;;1.63;1.13;;;;;;;9.87;60.15;96859.72;8313408;28;20240;-74
2022/11/21 09:44:35;;;;;;;2.43;1.00;;;;;;;10.08;61.03;96859.38;8313553;28;20235;-74
2022/11/21 09:48:47;;;;;;;2.47;1.20;;;;;;;9.79;59.49;96865.34;8313518;28;20230;-76
2022/11/21 09:52:54;;;;;;;2.43;0.90;;;;;;;9.77;59.96;96866.38;8313265;28;20249;-76
2022/11/21 09:56:58;;;;;;;2.90;1.10;;;;;;;9.54;60.60;96863.34;8312950;28;20461;-75
2022/11/21 10:01:01;;;;;;;2.57;1.00;;;;;;;9.77;60.41;96866.38;8313179;28;20455;-75
2022/11/21 10:05:12;;;;;;;8.57;1.67;;;;;;;12.38;80.02;96861.91;8312981;28;20358;-77
2022/11/21 10:09:23;;;;;;;8.33;1.47;;;;;;;12.00;68.81;96862.75;8313202;28;20250;-77
2022/11/21 10:13:34;;;;;;;4.20;1.20;;;;;;;12.76;63.91;96852.38;8313167;28;20227;-77
2022/11/21 10:17:45;;;;;;;2.80;1.33;;;;;;;12.50;58.84;96857.63;8313720;28;20234;-80
2022/11/21 10:22:05;;;;;;;3.23;1.30;;;;;;;12.63;56.34;96839.41;8313172;28;20239;-75
2022/11/21 10:26:15;;;;;;;3.67;1.17;;;;;;;11.78;54.71;96850.34;8313900;28;20227;-77
2022/11/21 10:30:19;;;;;;;3.73;1.00;;;;;;;11.35;55.88;96827.28;8318971;28;20231;-76
2022/11/21 10:34:24;;;;;;;3.57;1.27;;;;;;;11.06;56.07;96831.75;8318798;28;20514;-77
2022/11/21 10:38:29;;;;;;;2.70;1.10;;;;;;;11.03;57.22;96837.16;8318525;28;20224;-75
2022/11/21 10:42:35;;;;;;;3.90;1.37;;;;;;;10.85;56.81;96840.00;8318568;28;20239;-78
2022/11/21 10:46:37;;;;;;;2.40;1.00;;;;;;;10.61;56.77;96837.19;8318955;28;20239;-77
2022/11/21 10:50:48;;;;;;;3.53;1.00;;;;;;;10.56;57.62;96831.44;8319106;28;20230;-77
2022/11/21 10:55:10;;;;;;;2.87;1.33;;;;;;;10.65;56.90;96836.06;8318944;28;20226;-77
2022/11/21 10:59:20;;;;;;;2.13;1.10;;;;;;;10.81;56.76;96830.72;8317837;28;20249;-77
2022/11/21 11:03:31;;;;;;;2.47;1.30;;;;;;;10.66;56.80;96824.78;8318140;28;20241;-77
2022/11/21 11:07:34;;;;;;;4.33;1.37;;;;;;;10.56;57.65;96831.44;8317595;28;20253;-78
2022/11/21 11:11:39;;;;;;;2.40;1.20;;;;;;;10.30;58.04;96813.19;8317933;28;20432;-79
2022/11/21 11:15:55;;;;;;;2.80;1.20;;;;;;;10.69;56.87;96803.03;8317227;28;20519;-79
2022/11/21 11:20:04;;;;;;;3.57;1.30;;;;;;;10.93;55.90;96805.81;8317269;28;20235;-77
2022/11/21 11:24:20;;;;;;;2.93;1.20;;;;;;;11.59;54.94;96790.28;8317394;28;20514;-77
2022/11/21 11:28:26;;;;;;;2.53;1.13;;;;;;;11.28;55.51;96793.16;8300300;28;20222;-77
2022/11/21 11:32:29;;;;;;;3.27;1.13;;;;;;;10.83;55.79;96784.84;8317430;28;20414;-76
2022/11/21 11:36:38;;;;;;;3.30;1.50;;;;;;;10.92;56.40;96783.44;8316875;28;20226;-77
2022/11/21 11:40:43;;;;;;;2.97;2.00;;;;;;;10.69;56.60;96779.72;8317186;28;20231;-78
2022/11/21 11:49:24;;;;;;;3.30;2.10;;;;;;;10.64;57.25;96782.63;8316154;28;20557;-77
2022/11/21 11:53:31;;;;;;;3.77;2.73;;;;;;;10.43;57.80;96766.66;8316098;28;20235;-76
2022/11/21 11:57:35;;;;;;;4.73;2.90;;;;;;;10.18;56.64;96775.09;8316331;28;20317;-76
2022/11/21 12:01:42;;;;;;;5.17;3.20;;;;;;;10.37;56.07;96769.63;8315992;28;20555;-77
2022/11/21 12:05:55;;;;;;;3.43;1.40;;;;;;;10.47;56.00;96765.56;8315875;28;20516;-76
2022/11/21 12:10:04;;;;;;;1.13;0.90;;;;;;;10.68;55.63;96762.53;8315454;28;20241;-77
2022/11/21 12:15:47;;;;;;;1.43;0.90;;;;;;;10.53;55.13;96752.22;8315303;28;20238;-77
2022/11/21 12:18:45;;;;;;;1.50;0.73;;;;;;;11.08;53.80;96754.75;8315740;28;20444;-76
2022/11/21 12:22:50;;;;;;;1.70;0.60;;;;;;;10.96;53.67;96736.50;8315129;28;20230;-76
2022/11/21 12:26:59;;;;;;;4.30;1.60;;;;;;;11.97;67.09;96745.38;8314634;28;20293;-76
2022/11/21 12:31:07;;;;;;;6.47;1.20;;;;;;;12.69;55.47;96730.72;8314976;28;20230;-79
2022/11/21 12:35:20;;;;;;;4.23;1.20;;;;;;;12.66;57.40;96722.31;8315006;28;20229;-80
2022/11/21 12:39:52;;;;;;;2.40;1.50;;;;;;;11.93;52.38;96726.59;8314646;28;20227;-77
2022/11/21 12:44:02;;;;;;;4.70;1.30;;;;;;;11.93;51.65;96714.44;8314496;28;20446;-77
2022/11/21 12:57:05;;;;;;;3.13;1.30;;;;;;;12.52;52.37;96695.56;8314058;28;20249;-78
2022/11/21 13:01:17;;;;;;;2.53;1.47;;;;;;;12.40;50.04;96691.28;8314235;28;20285;-78
2022/11/21 13:05:26;;;;;;;3.43;1.30;;;;;;;11.67;49.34;96687.72;8314012;28;20242;-78
2022/11/21 13:09:33;;;;;;;2.13;0.90;;;;;;;12.00;48.60;96701.88;8314331;28;20405;-77
2022/11/21 13:13:37;;;;;;;4.50;1.07;;;;;;;12.30;47.80;96690.28;8313858;28;20242;-77
2022/11/21 13:17:45;;;;;;;4.77;1.40;;;;;;;12.38;47.74;96676.75;8313856;28;20224;-76
2022/11/21 13:21:49;;;;;;;5.60;1.50;;;;;;;12.61;47.85;96683.69;8313864;28;20231;-77
2022/11/21 13:25:53;;;;;;;3.03;1.10;;;;;;;12.65;47.56;96676.50;8313447;28;20514;-73
2022/11/21 13:30:24;;;;;;;5.07;1.40;;;;;;;12.55;45.42;96681.56;8313865;28;20231;-76
2022/11/21 13:34:36;;;;;;;2.83;1.20;;;;;;;12.53;45.52;96675.63;8313670;28;20224;-76
2022/11/21 13:39:12;;;;;;;3.80;1.10;;;;;;;12.88;46.20;96664.41;8313614;28;20466;-76
2022/11/21 13:43:24;;;;;;;3.83;1.00;;;;;;;12.96;45.73;96671.63;8313321;28;20298;-74
2022/11/21 13:47:54;;;;;;;1.63;0.80;;;;;;;12.14;45.96;96672.38;8313590;28;20223;-76
2022/11/21 13:52:00;;;;;;;3.23;0.87;;;;;;;11.83;46.26;96666.72;8313052;28;20239;-75
2022/11/21 13:56:10;;;;;;;3.90;1.00;;;;;;;11.81;47.15;96660.00;8313554;28;20431;-75
2022/11/21 14:00:30;;;;;;;1.97;0.93;;;;;;;12.25;46.25;96663.81;8314647;28;20227;-75
2022/11/21 14:04:50;;;;;;;2.47;1.17;;;;;;;12.25;48.06;96654.25;8319527;28;20250;-76
2022/11/21 14:09:14;;;;;;;3.70;1.20;;;;;;;12.47;47.27;96652.69;8319095;28;20235;-76
2022/11/21 14:13:22;;;;;;;3.53;1.10;;;;;;;12.30;47.54;96652.16;8319460;28;20533;-76
2022/11/21 14:17:34;;;;;;;1.90;1.10;;;;;;;12.01;48.00;96654.22;8319003;28;20294;-75
2022/11/21 14:21:37;;;;;;;3.23;1.23;;;;;;;12.08;47.36;96652.03;8319063;28;20423;-78
2022/11/21 14:25:43;;;;;;;2.53;1.07;;;;;;;12.12;48.10;96638.72;8319168;28;20231;-75
2022/11/21 14:29:45;;;;;;;4.10;2.67;;;;;;;12.13;49.23;96647.38;8318887;28;20232;-76
2022/11/21 14:33:56;;;;;;;5.03;3.50;;;;;;;11.60;49.80;96637.22;8318797;28;20531;-75
2022/11/21 14:37:59;;;;;;;5.53;3.30;;;;;;;11.40;51.24;96648.94;8318078;28;20253;-74
2022/11/21 14:42:03;;;;;;;4.50;2.00;;;;;;;11.31;50.51;96647.00;8307947;28;20268;-75
2022/11/21 14:46:14;;;;;;;7.03;2.50;;;;;;;11.07;51.50;96649.47;8318468;28;20235;-75
2022/11/21 14:50:29;;;;;;;4.20;2.47;;;;;;;10.99;52.20;96644.00;8318133;28;20230;-75
2022/11/21 14:54:35;;;;;;;3.27;1.80;;;;;;;10.94;50.89;96629.56;8318236;28;20226;-76
2022/11/21 14:58:38;;;;;;;3.70;1.67;;;;;;;10.82;52.95;96622.63;8317903;28;20229;-78
2022/11/21 15:02:41;;;;;;;3.90;1.73;;;;;;;10.69;51.54;96617.44;8318357;28;20238;-78
2022/11/21 15:06:46;;;;;;;5.83;3.97;;;;;;;10.50;53.26;96607.47;8317861;28;20313;-79
2022/11/21 15:10:49;;;;;;;11.07;6.73;;;;;;;10.42;52.61;96603.72;8317535;28;20257;-77
2022/11/21 15:14:55;;;;;;;8.43;5.30;;;;;;;10.40;52.27;96585.72;8316673;28;20265;-76
2022/11/21 15:18:58;;;;;;;13.57;9.50;;;;;;;10.21;52.39;96572.28;8316895;28;20235;-76
2022/11/21 15:23:02;;;;;;;10.13;6.20;;;;;;;10.03;52.87;96556.19;8317029;28;20238;-76
2022/11/21 15:27:23;;;;;;;3.90;1.80;;;;;;;11.47;77.13;96548.25;8317514;28;20230;-76
2022/11/21 15:31:26;;;;;;;15.23;5.20;;;;;;;11.81;55.94;96531.13;8316789;28;20522;-79
2022/11/21 15:35:40;;;;;;;7.73;4.40;;;;;;;10.79;52.91;96526.19;8316808;28;20233;-78
2022/11/21 15:39:46;;;;;;;8.37;4.20;;;;;;;10.42;53.92;96523.50;8316653;28;20226;-78
2022/11/21 15:43:51;;;;;;;10.50;5.40;;;;;;;10.07;54.18;96517.13;8316586;28;20297;-77
2022/11/21 15:47:55;;;;;;;8.23;5.10;;;;;;;9.98;55.23;96531.47;8315405;28;20230;-77
2022/11/21 15:51:58;;;;;;;10.40;6.03;;;;;;;9.81;55.33;96520.56;8316393;28;20230;-76
2022/11/21 15:56:14;;;;;;;17.93;8.63;;;;;;;9.83;55.20;96535.03;8316226;28;20234;-76
2022/11/21 16:00:24;;;;;;;15.30;8.60;;;;;;;9.66;56.12;96537.88;8316379;28;20239;-76
2022/11/21 16:04:27;;;;;;;14.50;8.83;;;;;;;9.50;55.83;96537.97;8316010;28;20237;-76
2022/11/21 16:08:29;;;;;;;17.87;12.23;;;;;;;9.36;55.77;96508.69;8315709;28;20524;-77
2022/11/21 16:12:34;;;;;;;11.30;7.53;;;;;;;9.32;56.15;96504.63;8315946;28;20264;-77
2022/11/21 16:16:38;;;;;;;12.07;8.27;;;;;;;8.82;56.61;96475.03;8315400;28;20234;-76
2022/11/21 16:20:44;;;;;;;14.70;9.20;;;;;;;8.94;56.30;96489.75;8315544;28;20476;-77
2022/11/21 16:24:47;;;;;;;14.40;9.40;;;;;;;8.94;56.40;96474.25;8314287;28;20281;-76
2022/11/21 16:28:53;;;;;;;17.03;11.70;;;;;;;8.79;56.88;96470.03;8315202;28;20231;-77
2022/11/21 16:32:56;;;;;;;19.00;11.30;;;;;;;8.92;56.55;96458.03;8314753;28;20461;-76
2022/11/21 16:36:58;;;;;;;15.80;10.67;;;;;;;8.74;56.78;96459.19;8314953;28;20237;-76
2022/11/21 16:41:09;;;;;;;17.10;12.30;;;;;;;8.73;56.79;96448.00;8314842;28;20319;-74
2022/11/21 16:45:13;;;;;;;21.70;14.63;;;;;;;8.73;56.83;96450.59;8314688;28;20531;-76
2022/11/21 16:49:15;;;;;;;20.87;14.50;;;;;;;8.65;57.11;96442.50;8314165;28;20255;-76
2022/11/21 16:53:18;;;;;;;25.47;17.70;;;;;;;8.60;56.70;96442.78;8314365;28;20235;-75
2022/11/21 16:57:21;;;;;;;21.47;15.80;;;;;;;8.50;56.77;96431.34;8314301;28;20234;-76
2022/11/21 17:01:26;;;;;;;21.47;15.47;;;;;;;8.52;56.94;96432.09;8314230;28;20534;-78
2022/11/21 17:05:30;;;;;;;23.73;16.13;;;;;;;8.44;56.90;96428.31;8314309;28;20552;-76
2022/11/21 17:09:33;;;;;;;25.47;19.83;;;;;;;8.38;57.15;96430.31;8314232;28;20276;-78
2022/11/21 17:13:36;;;;;;;24.60;16.23;;;;;;;8.27;56.33;96418.97;8313776;28;20233;-76
2022/11/21 17:17:40;;;;;;;17.67;11.63;;;;;;;8.31;56.66;96415.28;8314077;28;20230;-75
2022/11/21 17:21:43;;;;;;;14.43;8.57;;;;;;;8.23;56.70;96405.44;8313989;28;20416;-75
2022/11/21 17:25:46;;;;;;;14.40;7.80;;;;;;;8.26;56.89;96386.34;8313724;28;20258;-74
2022/11/21 17:29:49;;;;;;;13.47;7.87;;;;;;;8.14;56.35;96388.75;8313565;28;20237;-75
2022/11/21 17:34:19;;;;;;;13.93;7.03;;;;;;;8.01;56.20;96374.94;8315756;28;20240;-76
2022/11/21 17:38:48;;;;;;;11.03;7.67;;;;;;;8.22;56.21;96380.56;8321106;28;20345;-74
2022/11/21 17:42:54;;;;;;;14.90;9.97;;;;;;;8.07;57.13;96361.66;8319590;28;20237;-74
2022/11/21 17:46:58;;;;;;;12.30;8.80;;;;;;;7.71;58.12;96344.91;8320094;28;20234;-75
2022/11/21 17:51:03;;;;;;;13.00;9.00;;;;;;;7.23;59.27;96355.38;8319941;28;20246;-76
2022/11/21 17:55:07;;;;;;;15.73;10.23;;;;;;;7.66;58.38;96346.91;8320338;28;20315;-76
2022/11/21 17:59:12;;;;;;;11.37;7.53;;;;;;;7.49;58.93;96345.31;8320434;28;20237;-75
2022/11/21 18:03:15;;;;;;;11.13;6.60;;;;;;;7.57;58.32;96335.38;8319605;28;20230;-77
2022/11/21 18:07:19;;;;;;;12.57;8.20;;;;;;;7.21;59.52;96338.34;8319184;28;20272;-77
2022/11/21 18:11:22;;;;;;;14.77;7.07;;;;;;;6.89;60.15;96327.28;8319633;28;20226;-78
2022/11/21 18:15:25;;;;;;;12.43;5.93;;;;;;;6.70;61.40;96338.59;8319078;28;20241;-77
2022/11/21 18:19:27;;;;;;;9.63;6.00;;;;;;;7.39;58.55;96337.28;8319146;28;20225;-79
2022/11/21 18:23:33;;;;;;;11.77;6.10;;;;;;;7.09;59.54;96332.16;8319072;28;20549;-77
2022/11/21 18:27:36;;;;;;;9.73;6.03;;;;;;;6.41;61.77;96328.13;8318919;28;20229;-75
2022/11/21 18:31:39;;;;;;;9.37;6.27;;;;;;;6.69;61.31;96325.81;8318563;28;20396;-76
2022/11/21 18:35:42;;;;;;;10.03;6.33;;;;;;;6.74;60.27;96310.94;8318878;28;20238;-78
2022/11/21 18:39:46;;;;;;;12.07;6.07;;;;;;;7.01;59.66;96296.53;8318841;28;20231;-77
2022/11/21 18:43:52;;;;;;;13.47;7.60;;;;;;;6.75;60.74;96299.75;8318746;28;20230;-78
2022/11/21 18:47:54;;;;;;;10.23;6.40;;;;;;;7.17;59.64;96290.50;8317175;28;20428;-77
2022/11/21 18:51:58;;;;;;;9.63;6.70;;;;;;;6.73;61.07;96275.84;8318358;28;20241;-77
2022/11/21 18:56:05;;;;;;;11.50;6.63;;;;;;;6.71;61.46;96272.53;8318321;28;20237;-78
2022/11/21 19:00:10;;;;;;;12.30;7.40;;;;;;;6.80;60.66;96272.84;8318034;28;20505;-77
2022/11/21 19:04:13;;;;;;;12.07;8.57;;;;;;;7.03;59.57;96274.13;8317745;28;20421;-75
2022/11/21 19:08:15;;;;;;;14.93;7.93;;;;;;;6.82;59.31;96273.59;8317873;28;20237;-77
2022/11/21 19:12:20;;;;;;;11.67;8.10;;;;;;;7.13;59.30;96256.41;8317758;28;20222;-77
2022/11/21 19:16:24;;;;;;;11.67;8.80;;;;;;;6.57;60.96;96238.13;8318023;28;20260;-77
2022/11/21 19:20:27;;;;;;;14.83;9.87;;;;;;;6.50;61.34;96252.25;8317580;28;20229;-78
2022/11/21 19:24:30;;;;;;;10.97;7.30;;;;;;;7.08;59.86;96258.41;8317608;28;20241;-80
2022/11/21 19:28:34;;;;;;;10.97;7.90;;;;;;;7.16;59.67;96256.22;8317582;28;20341;-79
2022/11/21 19:32:37;;;;;;;16.67;10.60;;;;;;;7.21;59.25;96264.50;8317213;28;20230;-79
2022/11/21 19:36:39;;;;;;;11.03;7.47;;;;;;;6.94;60.33;96254.03;8317112;28;20226;-79
2022/11/21 19:45:05;;;;;;;11.40;7.33;;;;;;;7.03;59.40;96275.88;8316657;28;20526;-79
2022/11/21 19:49:08;;;;;;;10.67;7.47;;;;;;;6.99;59.40;96272.63;8319030;28;20230;-80